createdAt,value
2023-10-31T00:02:03.488Z,24
2023-10-31T00:07:55.669Z,24
2023-10-31T00:13:47.102Z,24
2023-10-31T00:19:50.253Z,23.9
2023-10-31T00:25:42.036Z,23.9
2023-10-31T00:31:33.584Z,23.9
2023-10-31T00:37:26.554Z,23.9
2023-10-31T00:43:19.712Z,23.9
2023-10-31T00:48:56.046Z,23.9
2023-10-31T00:54:32.487Z,23.9
2023-10-31T01:00:08.402Z,23.9
2023-10-31T01:05:45.457Z,23.9
2023-10-31T01:11:37.178Z,23.9
2023-10-31T01:17:14.034Z,23.9
2023-10-31T01:23:06.190Z,23.9
2023-10-31T01:28:42.982Z,23.8
2023-10-31T01:34:51.870Z,23.8
2023-10-31T01:40:27.915Z,23.8
2023-10-31T01:46:19.487Z,23.8
2023-10-31T01:52:12.005Z,23.8
2023-10-31T01:57:48.516Z,23.8
2023-10-31T02:03:40.367Z,23.8
2023-10-31T02:09:32.427Z,23.8
2023-10-31T02:15:23.257Z,23.8
2023-10-31T02:21:15.274Z,23.8
2023-10-31T02:27:07.687Z,23.8
2023-10-31T02:33:00.132Z,23.8
2023-10-31T02:38:51.777Z,23.8
2023-10-31T02:44:28.652Z,23.8
2023-10-31T02:50:20.299Z,23.8
2023-10-31T02:56:11.526Z,23.8
2023-10-31T03:02:03.064Z,23.8
2023-10-31T03:07:55.286Z,23.8
2023-10-31T03:13:46.664Z,23.8
2023-10-31T03:19:24.197Z,23.8
2023-10-31T03:25:15.348Z,23.8
2023-10-31T03:31:07.077Z,23.8
2023-10-31T03:36:59.841Z,23.7
2023-10-31T03:42:51.614Z,23.8
2023-10-31T03:48:43.117Z,23.7
2023-10-31T03:54:19.513Z,23.6
2023-10-31T03:59:55.425Z,23.5
2023-10-31T04:05:32.254Z,23.4
2023-10-31T04:11:08.558Z,23.3
2023-10-31T04:16:44.674Z,23.3
2023-10-31T04:22:21.668Z,23.2
2023-10-31T04:28:14.011Z,23.1
2023-10-31T04:34:23.715Z,23.1
2023-10-31T04:40:18.111Z,23
2023-10-31T04:46:10.668Z,22.9
2023-10-31T04:51:48.113Z,22.9
2023-10-31T04:57:27.605Z,22.9
2023-10-31T05:03:04.384Z,22.8
2023-10-31T05:08:54.984Z,22.8
2023-10-31T05:14:34.553Z,22.8
2023-10-31T05:20:12.132Z,22.7
2023-10-31T05:25:49.298Z,22.7
2023-10-31T05:31:42.855Z,22.7
2023-10-31T05:37:19.993Z,22.6
2023-10-31T05:43:11.279Z,22.6
2023-10-31T05:48:49.522Z,22.6
2023-10-31T05:54:41.713Z,22.6
2023-10-31T06:00:33.836Z,22.8
2023-10-31T06:06:27.422Z,22.7
2023-10-31T06:12:20.104Z,22.6
2023-10-31T06:18:12.838Z,22.6
2023-10-31T06:24:06.137Z,22.6
2023-10-31T06:30:56.893Z,24.5
2023-10-31T06:36:48.926Z,28.4
2023-10-31T06:42:25.327Z,27.7
2023-10-31T06:48:21.641Z,31.3
2023-10-31T06:54:15.559Z,32.8
2023-10-31T06:59:51.948Z,33.8
2023-10-31T07:05:30.131Z,34.7
2023-10-31T07:11:08.439Z,35.6
2023-10-31T07:17:00.465Z,36.4
2023-10-31T07:22:52.450Z,37.3
2023-10-31T07:28:44.255Z,38.3
2023-10-31T07:34:23.412Z,39
2023-10-31T07:40:15.736Z,39.8
2023-10-31T07:45:52.778Z,40.6
2023-10-31T07:51:14.619Z,41.3
2023-10-31T07:57:10.486Z,42.1
2023-10-31T08:03:02.524Z,42.9
2023-10-31T08:08:55.136Z,43.8
2023-10-31T08:14:47.788Z,44.6
2023-10-31T08:20:40.054Z,45.4
2023-10-31T08:26:31.440Z,46.3
2023-10-31T08:32:23.694Z,47.1
2023-10-31T08:38:21.294Z,47.9
2023-10-31T08:44:17.971Z,48.7
2023-10-31T08:50:11.963Z,49.5
2023-10-31T08:55:47.645Z,50.3
2023-10-31T09:01:39.749Z,50.9
2023-10-31T09:07:32.315Z,51.6
2023-10-31T09:13:23.924Z,52.3
2023-10-31T09:19:15.579Z,52.9
2023-10-31T09:25:07.903Z,53.4
2023-10-31T09:30:51.925Z,54
2023-10-31T09:36:29.044Z,54.5
2023-10-31T09:41:54.257Z,55
2023-10-31T09:47:31.953Z,55.4
2023-10-31T09:53:08.198Z,55.9
2023-10-31T09:58:30.381Z,55.6
2023-10-31T10:04:11.558Z,54.4
2023-10-31T10:10:03.588Z,54.7
2023-10-31T10:15:40.093Z,55.2
2023-10-31T10:21:33.029Z,55.3
2023-10-31T10:27:18.462Z,55.1
2023-10-31T10:32:55.479Z,55.6
2023-10-31T10:38:16.928Z,55.5
2023-10-31T10:43:38.848Z,55.3
2023-10-31T10:49:01.440Z,55.3
2023-10-31T10:54:08.057Z,55.8
2023-10-31T10:59:44.474Z,55.5
2023-10-31T11:05:06.717Z,55.3
2023-10-31T11:10:13.464Z,54.8
2023-10-31T11:15:34.530Z,54.2
2023-10-31T11:20:55.795Z,53.8
2023-10-31T11:26:10.276Z,53.3
2023-10-31T11:31:46.964Z,52.7
2023-10-31T11:37:23.836Z,52.1
2023-10-31T11:42:45.376Z,51.7
2023-10-31T11:48:06.741Z,51.3
2023-10-31T11:53:48.758Z,50.9
2023-10-31T11:59:24.625Z,50.4
2023-10-31T12:05:16.717Z,49.9
2023-10-31T12:11:12.264Z,49.3
2023-10-31T12:16:49.874Z,48.9
2023-10-31T12:22:27.918Z,48.7
2023-10-31T12:28:21.330Z,49
2023-10-31T12:33:57.915Z,49.8
2023-10-31T12:39:34.600Z,49.9
2023-10-31T12:45:11.328Z,49.5
2023-10-31T12:50:47.644Z,48.8
2023-10-31T12:56:25.295Z,48.3
2023-10-31T13:01:31.551Z,47.8
2023-10-31T13:07:26.785Z,47.3
2023-10-31T13:13:03.633Z,46.8
2023-10-31T13:18:40.429Z,46.3
2023-10-31T13:23:46.337Z,45.9
2023-10-31T13:28:52.112Z,45.8
2023-10-31T13:34:30.977Z,45.9
2023-10-31T13:39:52.796Z,46.1
2023-10-31T13:45:14.360Z,46.1
2023-10-31T13:50:51.731Z,45.9
2023-10-31T13:56:28.096Z,45.6
2023-10-31T14:02:05.267Z,45.3
2023-10-31T14:08:01.534Z,44.9
2023-10-31T14:13:41.171Z,44.3
2023-10-31T14:19:18.775Z,43.8
2023-10-31T14:25:01.915Z,43.3
2023-10-31T14:30:37.796Z,42.9
2023-10-31T14:35:45.257Z,41.5
2023-10-31T14:41:06.868Z,39.6
2023-10-31T14:46:44.454Z,37.9
2023-10-31T14:52:21.147Z,36.4
2023-10-31T14:57:58.205Z,35.4
2023-10-31T15:03:20.056Z,34.4
2023-10-31T15:09:01.748Z,33.8
2023-10-31T15:14:23.365Z,33.2
2023-10-31T15:20:00.706Z,32.7
2023-10-31T15:25:52.235Z,32.3
2023-10-31T15:31:31.335Z,32.1
2023-10-31T15:37:07.605Z,31.7
2023-10-31T15:42:37.394Z,31.4
2023-10-31T15:48:14.842Z,31.1
2023-10-31T15:53:51.216Z,30.8
2023-10-31T15:59:28.166Z,30.6
2023-10-31T16:04:37.869Z,30
2023-10-31T16:10:14.782Z,29.3
2023-10-31T16:15:53.451Z,28.6
2023-10-31T16:21:31.289Z,28
2023-10-31T16:27:08.159Z,27.4
2023-10-31T16:32:44.515Z,27
2023-10-31T16:38:08.107Z,26.6
2023-10-31T16:43:47.361Z,26.3
2023-10-31T16:49:39.354Z,26.1
2023-10-31T16:54:45.616Z,25.8
2023-10-31T17:00:08.441Z,25.6
2023-10-31T17:05:45.903Z,25.4
2023-10-31T17:11:23.971Z,25.3
2023-10-31T17:17:15.881Z,25.1
2023-10-31T17:23:08.741Z,25
2023-10-31T17:28:52.510Z,24.9
2023-10-31T17:34:58.791Z,24.8
2023-10-31T17:40:51.413Z,24.6
2023-10-31T17:46:28.928Z,24.6
2023-10-31T17:52:21.887Z,24.5
2023-10-31T17:57:46.421Z,24.4
2023-10-31T18:03:24.350Z,24.3
2023-10-31T18:08:45.642Z,24.3
2023-10-31T18:14:25.930Z,24.2
2023-10-31T18:20:03.178Z,24.2
2023-10-31T18:25:41.356Z,24.1
2023-10-31T18:31:34.120Z,24.1
2023-10-31T18:37:39.368Z,24
2023-10-31T18:43:56.070Z,24
2023-10-31T18:50:16.305Z,23.9
2023-10-31T18:56:09.992Z,23.9
2023-10-31T19:01:49.333Z,23.9
2023-10-31T19:07:27.016Z,23.8
2023-10-31T19:12:49.499Z,23.8
2023-10-31T19:18:12.024Z,23.8
2023-10-31T19:24:05.959Z,23.8
2023-10-31T19:29:30.086Z,23.8
2023-10-31T19:35:23.419Z,23.7
2023-10-31T19:41:15.912Z,23.7
2023-10-31T19:47:10.711Z,23.7
2023-10-31T19:53:04.792Z,23.7
2023-10-31T19:58:59.791Z,23.6
2023-10-31T20:04:58.932Z,23.6
2023-10-31T20:10:52.153Z,23.6
2023-10-31T20:16:56.507Z,23.6
2023-10-31T20:22:34.664Z,23.6
2023-10-31T20:27:56.735Z,23.6
2023-10-31T20:33:34.241Z,23.6
2023-10-31T20:39:11.330Z,23.6
2023-10-31T20:44:48.060Z,23.5
2023-10-31T20:50:27.266Z,23.5
2023-10-31T20:56:19.879Z,23.5
2023-10-31T21:01:57.195Z,23.4
2023-10-31T21:07:21.181Z,23.4
2023-10-31T21:12:58.698Z,23.4
2023-10-31T21:18:36.069Z,23.4
2023-10-31T21:24:21.682Z,23.4
2023-10-31T21:29:59.140Z,23.3
2023-10-31T21:35:38.684Z,23.3
2023-10-31T21:41:30.132Z,23.3
2023-10-31T21:47:06.946Z,23.3
2023-10-31T21:52:58.211Z,23.3
2023-10-31T21:58:52.326Z,23.3
2023-10-31T22:04:46.294Z,23.3
2023-10-31T22:10:38.668Z,23.3
2023-10-31T22:16:15.539Z,23.3
2023-10-31T22:22:08.140Z,23.2
2023-10-31T22:28:00.103Z,23.2
2023-10-31T22:33:52.389Z,23.2
2023-10-31T22:39:29.034Z,23.2
2023-10-31T22:45:20.266Z,23.2
2023-10-31T22:50:42.239Z,23.2
2023-10-31T22:56:04.338Z,23.1
2023-10-31T23:01:56.509Z,23.2
2023-10-31T23:07:48.761Z,23.1
2023-10-31T23:13:46.758Z,23.1
2023-10-31T23:19:22.418Z,23.1
2023-10-31T23:25:14.167Z,23.1
2023-10-31T23:30:54.623Z,23.1
2023-10-31T23:36:52.424Z,23.1
2023-10-31T23:42:43.990Z,23.1
2023-10-31T23:48:20.770Z,23.1
2023-10-31T23:53:41.465Z,23.1
2023-10-31T23:59:32.857Z,23.1
